LDDU/DBV METAR and TAF weather

Enter ICAO airport designator
Station Type Date Time Source
LDDU METAR 2020/07/08 22:30 UTC NOAA

LDDU 082230Z 27007KT 220V340 CAVOK 23/11 Q1016


Station Type Date Time Source
LDDU Decoded METAR 2020/07/08 22:30 UTC NOAA

Dubrovnik / Cilipi, Croatia (LDDU) 42-34N 018-16E 165M
Jul 08, 2020 - 06:30 PM EDT / 2020.07.08 2230 UTC
Wind: from the W (270 degrees) at 8 MPH (7 KT) (direction variable):0
Visibility: greater than 7 mile(s):0
Temperature: 73 F (23 C)
Dew Point: 51 F (11 C)
Relative Humidity: 46%
Pressure (altimeter): 30.00 in. Hg (1016 hPa)
ob: LDDU 082230Z 27007KT 220V340 CAVOK 23/11 Q1016
cycle: 22

Station Type Date Time Source
LDDU TAF 2020/07/08 18:27 UTC NOAA

TAF TAF LDDU 081725Z 0818/0918 29008KT CAVOK TX27/0912Z TN21/0904Z
BECMG 0818/0820 03012KT
BECMG 0906/0908 16008KT
BECMG 0912/0914 29009KT

Example: see airport list